Time;durP1;ratioP1;P1;durP2;ratioP2;P2;SDS_P1;SDS_P2;PMS_P1;PMS_P2;Temp;Humidity;BMP_temperature;BMP_pressure;BME280_temperature;BME280_humidity;BME280_pressure;Samples;Min_cycle;Max_cycle;Signal;HPM_P1;HPM_P2
2023/05/04 00:00:19;;;;;;;36.70;23.80;;;;;;;9.65;73.10;99938.80;104690;1262;107824;-79
2023/05/04 00:03:07;;;;;;;33.80;22.10;;;;;;;9.64;73.12;99933.91;104658;1265;96588;-80
2023/05/04 00:05:35;;;;;;;34.90;23.50;;;;;;;9.62;73.17;99930.50;104769;1259;96649;-79
2023/05/04 00:08:04;;;;;;;34.20;23.10;;;;;;;9.63;73.25;99926.90;104639;1262;108841;-79
2023/05/04 00:10:31;;;;;;;36.30;24.10;;;;;;;9.63;73.23;99923.52;104672;1262;96597;-79
2023/05/04 00:12:59;;;;;;;34.00;22.80;;;;;;;9.64;73.21;99923.12;104644;1262;107650;-79
2023/05/04 00:15:29;;;;;;;36.50;24.00;;;;;;;9.65;73.29;99924.84;104639;1262;97167;-79
2023/05/04 00:17:57;;;;;;;35.40;22.80;;;;;;;9.65;73.31;99926.05;104662;1257;96604;-79
2023/05/04 00:20:24;;;;;;;30.30;20.40;;;;;;;9.64;73.28;99924.34;104632;1263;110018;-79
2023/05/04 00:22:53;;;;;;;32.40;21.80;;;;;;;9.63;73.25;99924.77;104664;1263;96545;-79
2023/05/04 00:25:20;;;;;;;36.10;24.20;;;;;;;9.61;73.33;99917.61;104700;1257;107877;-79
2023/05/04 00:27:48;;;;;;;35.10;22.60;;;;;;;9.60;73.33;99916.94;104689;1260;96579;-79
2023/05/04 00:30:16;;;;;;;33.00;22.40;;;;;;;9.59;73.38;99918.99;104651;1269;96525;-79
2023/05/04 00:32:44;;;;;;;35.00;22.10;;;;;;;9.59;73.41;99917.04;104622;1262;111082;-79
2023/05/04 00:35:11;;;;;;;35.20;22.60;;;;;;;9.58;73.30;99917.10;104647;1262;97553;-79
2023/05/04 00:37:42;;;;;;;32.40;22.10;;;;;;;9.55;73.43;99917.92;104677;1262;106950;-79
2023/05/04 00:40:10;;;;;;;33.00;21.90;;;;;;;9.54;73.48;99919.42;104627;1261;96758;-80
2023/05/04 00:42:38;;;;;;;34.60;22.70;;;;;;;9.51;73.43;99918.66;104651;1262;96602;-80
2023/05/04 00:45:06;;;;;;;36.80;23.20;;;;;;;9.49;73.36;99915.97;104631;1259;110294;-80
2023/05/04 00:47:35;;;;;;;33.30;22.40;;;;;;;9.48;73.47;99916.34;104650;1259;96713;-80
2023/05/04 00:50:03;;;;;;;35.10;21.70;;;;;;;9.48;73.47;99919.77;104595;1262;107082;-79
2023/05/04 00:52:33;;;;;;;35.40;22.60;;;;;;;9.48;73.57;99917.27;104765;1261;96719;-80
2023/05/04 00:55:02;;;;;;;34.80;23.00;;;;;;;9.50;73.60;99916.79;104634;1259;96545;-79
2023/05/04 00:57:29;;;;;;;34.90;22.10;;;;;;;9.53;73.50;99915.38;104716;1259;109127;-79
2023/05/04 00:59:57;;;;;;;34.40;23.10;;;;;;;9.55;73.59;99908.59;104710;1262;96588;-79
2023/05/04 01:02:25;;;;;;;35.30;23.70;;;;;;;9.54;73.54;99904.35;104648;1269;107888;-79
2023/05/04 01:04:53;;;;;;;34.20;23.50;;;;;;;9.52;73.52;99903.75;104607;1262;97031;-79
2023/05/04 01:07:49;;;;;;;35.10;22.70;;;;;;;9.48;73.55;99906.30;104707;1262;96511;-79
2023/05/04 01:10:34;;;;;;;34.10;22.80;;;;;;;9.47;73.57;99902.77;104601;1262;111148;-79
2023/05/04 01:13:13;;;;;;;34.20;23.00;;;;;;;9.49;73.73;99902.67;104654;1262;97560;-79
2023/05/04 01:15:42;;;;;;;38.50;23.50;;;;;;;9.51;73.72;99901.52;104607;1262;107839;-79
2023/05/04 01:18:10;;;;;;;32.10;22.50;;;;;;;9.53;73.70;99901.23;104654;1261;96764;-78
2023/05/04 01:20:38;;;;;;;36.00;22.00;;;;;;;9.52;73.73;99902.67;104722;1262;96593;-79
2023/05/04 01:23:07;;;;;;;33.90;22.10;;;;;;;9.51;73.68;99900.42;104652;1265;109627;-78
2023/05/04 01:25:45;;;;;;;33.70;22.80;;;;;;;9.49;73.58;99898.61;104637;1262;96691;-78
2023/05/04 01:28:21;;;;;;;32.00;21.40;;;;;;;9.46;73.63;99893.83;104619;1262;107978;-79
2023/05/04 01:30:54;;;;;;;34.40;23.10;;;;;;;9.45;73.63;99895.80;104605;1262;97810;-79
2023/05/04 01:33:23;;;;;;;35.30;22.70;;;;;;;9.44;73.76;99894.27;104748;1262;96538;-79
2023/05/04 01:35:51;;;;;;;33.90;22.00;;;;;;;9.45;73.71;99892.08;104632;1259;110202;-79
2023/05/04 01:38:19;;;;;;;35.90;23.40;;;;;;;9.47;73.73;99890.94;104700;1259;96683;-80
2023/05/04 01:40:46;;;;;;;35.50;24.20;;;;;;;9.46;73.71;99886.02;104654;1262;106991;-79
2023/05/04 01:43:15;;;;;;;33.70;23.00;;;;;;;9.46;73.68;99885.66;104654;1271;96585;-79
2023/05/04 01:45:43;;;;;;;33.30;23.00;;;;;;;9.45;73.85;99884.31;104597;1262;97916;-79
2023/05/04 01:48:11;;;;;;;34.40;23.00;;;;;;;9.45;73.75;99882.56;104657;1261;109048;-79
2023/05/04 01:50:38;;;;;;;36.40;25.00;;;;;;;9.45;73.81;99884.34;104666;1262;97836;-79
2023/05/04 01:53:06;;;;;;;34.40;22.40;;;;;;;9.44;73.89;99888.27;104634;1264;106954;-78
2023/05/04 01:55:34;;;;;;;36.40;23.30;;;;;;;9.46;73.88;99884.27;104611;1260;97520;-79
2023/05/04 01:58:02;;;;;;;33.30;22.50;;;;;;;9.46;73.87;99883.70;104673;1262;96559;-79
2023/05/04 02:00:31;;;;;;;34.30;22.30;;;;;;;9.47;73.88;99885.80;104651;1262;109968;-79
2023/05/04 02:02:58;;;;;;;34.40;23.60;;;;;;;9.47;73.93;99886.15;104639;1262;96678;-79
2023/05/04 02:05:26;;;;;;;34.60;23.50;;;;;;;9.45;73.89;99886.41;104722;1262;106945;-78
2023/05/04 02:07:54;;;;;;;36.50;24.40;;;;;;;9.44;73.93;99887.19;104661;1271;96590;-78
2023/05/04 02:10:23;;;;;;;35.60;23.80;;;;;;;9.45;73.94;99884.52;104629;1259;96593;-79
2023/05/04 02:12:51;;;;;;;32.60;22.00;;;;;;;9.47;74.04;99886.52;104605;1262;111094;-79
2023/05/04 02:15:19;;;;;;;33.30;22.70;;;;;;;9.47;74.00;99882.42;104700;1262;96789;-79
2023/05/04 02:17:47;;;;;;;32.70;21.90;;;;;;;9.46;73.85;99878.25;104651;1262;106936;-79
2023/05/04 02:20:15;;;;;;;34.30;24.10;;;;;;;9.45;73.95;99876.88;104625;1270;96605;-80
2023/05/04 02:22:43;;;;;;;33.10;22.10;;;;;;;9.44;74.02;99877.84;104640;1262;97548;-78
2023/05/04 02:25:12;;;;;;;33.40;21.70;;;;;;;9.43;74.00;99877.71;104829;1262;110931;-79
2023/05/04 02:27:39;;;;;;;31.40;21.50;;;;;;;9.42;74.04;99876.52;104639;1269;96609;-79
2023/05/04 02:30:08;;;;;;;32.10;22.60;;;;;;;9.43;74.10;99880.36;104635;1274;107869;-79
2023/05/04 02:32:36;;;;;;;31.50;20.60;;;;;;;9.44;74.07;99878.70;104608;1262;96757;-79
2023/05/04 02:35:04;;;;;;;32.10;21.10;;;;;;;9.46;74.15;99877.19;104727;1260;96588;-79
2023/05/04 02:37:32;;;;;;;31.90;20.40;;;;;;;9.46;74.13;99878.44;104632;1267;109085;-79
2023/05/04 02:40:01;;;;;;;31.40;20.70;;;;;;;9.42;74.03;99876.70;104659;1264;97206;-79
2023/05/04 02:42:29;;;;;;;30.80;19.90;;;;;;;9.40;74.08;99878.36;104604;1262;107453;-79
2023/05/04 02:44:56;;;;;;;30.80;20.40;;;;;;;9.40;74.14;99878.04;104636;1262;96585;-79
2023/05/04 02:47:24;;;;;;;30.40;19.60;;;;;;;9.41;74.17;99879.03;104617;1262;97931;-79
2023/05/04 02:49:52;;;;;;;28.70;19.20;;;;;;;9.42;74.18;99878.63;104628;1260;110243;-79
2023/05/04 02:52:20;;;;;;;31.90;20.20;;;;;;;9.40;74.06;99874.28;104617;1266;97526;-79
2023/05/04 02:54:48;;;;;;;30.10;19.60;;;;;;;9.40;74.15;99876.44;104648;1262;108904;-79
2023/05/04 02:57:19;;;;;;;35.30;23.00;;;;;;;9.40;74.20;99877.32;104783;1259;96674;-79
2023/05/04 02:59:47;;;;;;;36.80;23.50;;;;;;;9.40;74.26;99873.95;104682;1262;97523;-79
2023/05/04 03:02:15;;;;;;;32.70;21.00;;;;;;;9.41;74.19;99877.30;104602;1259;109919;-79
2023/05/04 03:04:42;;;;;;;31.40;20.60;;;;;;;9.40;74.21;99882.11;104656;1259;96592;-79
2023/05/04 03:07:10;;;;;;;31.10;20.90;;;;;;;9.39;74.17;99882.36;104618;1266;107896;-79
2023/05/04 03:09:38;;;;;;;29.50;19.30;;;;;;;9.38;74.23;99881.48;104637;1259;97544;-79
2023/05/04 03:12:06;;;;;;;30.70;19.50;;;;;;;9.39;74.33;99880.92;104633;1262;97948;-79
2023/05/04 03:14:33;;;;;;;31.90;21.70;;;;;;;9.40;74.30;99879.98;104623;1259;110827;-79
2023/05/04 03:17:01;;;;;;;32.40;21.00;;;;;;;9.39;74.22;99875.77;104652;1262;97469;-79
2023/05/04 03:19:29;;;;;;;35.40;21.90;;;;;;;9.41;74.33;99873.56;104633;1271;107756;-79
2023/05/04 03:21:57;;;;;;;29.80;18.90;;;;;;;9.42;74.35;99872.98;104665;1262;97844;-79
2023/05/04 03:24:25;;;;;;;29.70;19.40;;;;;;;9.42;74.37;99877.38;104687;1262;96512;-79
2023/05/04 03:26:53;;;;;;;31.40;19.30;;;;;;;9.43;74.35;99877.69;104609;1260;110127;-79
2023/05/04 03:29:21;;;;;;;31.30;19.80;;;;;;;9.42;74.37;99878.99;104620;1262;97409;-79
2023/05/04 03:31:49;;;;;;;30.90;19.30;;;;;;;9.42;74.41;99882.89;104644;1262;107357;-79
2023/05/04 03:34:20;;;;;;;31.90;21.50;;;;;;;9.42;74.39;99880.04;104592;1264;97493;-79
2023/05/04 03:36:48;;;;;;;30.70;19.30;;;;;;;9.42;74.45;99882.20;104740;1262;96698;-79
2023/05/04 03:39:16;;;;;;;34.30;22.30;;;;;;;9.41;74.28;99881.19;104589;1262;108991;-79
2023/05/04 03:41:44;;;;;;;31.20;21.00;;;;;;;9.41;74.37;99881.88;104654;1260;96601;-79
2023/05/04 03:44:12;;;;;;;35.00;21.50;;;;;;;9.43;74.47;99880.70;104712;1259;105838;-79
2023/05/04 03:46:40;;;;;;;32.00;19.80;;;;;;;9.46;74.49;99884.08;104894;1278;97919;-79
2023/05/04 03:49:08;;;;;;;30.80;19.00;;;;;;;9.48;74.51;99882.73;106091;1258;96585;-79
2023/05/04 03:51:36;;;;;;;31.80;19.20;;;;;;;9.51;74.49;99886.11;105382;1261;109529;-79
2023/05/04 03:54:03;;;;;;;31.80;19.30;;;;;;;9.51;74.51;99887.69;105065;1262;96582;-79
2023/05/04 03:56:31;;;;;;;29.60;18.60;;;;;;;9.52;74.50;99883.94;107569;1259;108787;-80
2023/05/04 03:58:59;;;;;;;31.90;19.90;;;;;;;9.53;74.44;99883.31;108240;1259;94475;-80
2023/05/04 04:01:27;;;;;;;30.50;19.90;;;;;;;9.56;74.51;99883.04;106886;1260;96499;-80
2023/05/04 04:03:55;;;;;;;29.60;20.00;;;;;;;9.57;74.45;99885.96;105046;1262;109028;-79
2023/05/04 04:06:23;;;;;;;31.60;20.60;;;;;;;9.59;74.47;99887.09;104995;1260;98002;-79
2023/05/04 04:08:51;;;;;;;32.90;21.80;;;;;;;9.60;74.40;99890.05;104862;1262;108697;-80
2023/05/04 04:11:18;;;;;;;33.40;22.20;;;;;;;9.63;74.47;99895.39;104820;1262;96499;-79
2023/05/04 04:13:47;;;;;;;30.50;20.10;;;;;;;9.62;74.44;99892.91;104801;1264;96708;-79
2023/05/04 04:16:15;;;;;;;28.10;18.90;;;;;;;9.64;74.50;99892.11;104815;1260;109613;-78
2023/05/04 04:18:43;;;;;;;31.80;18.90;;;;;;;9.66;74.51;99891.11;104620;1262;96599;-78
2023/05/04 04:21:11;;;;;;;31.40;20.10;;;;;;;9.67;74.60;99889.29;104636;1264;108047;-79
2023/05/04 04:23:39;;;;;;;48.50;39.80;;;;;;;9.67;74.49;99892.48;104736;1273;96604;-79
2023/05/04 04:26:07;;;;;;;59.80;53.30;;;;;;;9.67;74.59;99891.05;104620;1271;96534;-79
2023/05/04 04:28:35;;;;;;;34.90;24.50;;;;;;;9.70;74.61;99893.95;104565;1262;109959;-79
2023/05/04 04:31:03;;;;;;;33.70;22.40;;;;;;;9.71;74.64;99892.27;104639;1273;96697;-79
2023/05/04 04:33:31;;;;;;;37.00;25.60;;;;;;;9.72;74.56;99890.95;104663;1263;107839;-79
2023/05/04 04:35:59;;;;;;;30.50;20.30;;;;;;;9.76;74.62;99892.36;104668;1264;96599;-79
2023/05/04 04:38:27;;;;;;;30.70;19.80;;;;;;;9.79;74.62;99890.61;104575;1273;96606;-79
2023/05/04 04:40:55;;;;;;;30.80;20.50;;;;;;;9.82;74.65;99893.92;104625;1261;110214;-79
2023/05/04 04:43:23;;;;;;;30.30;19.40;;;;;;;9.86;74.68;99897.46;104617;1262;97578;-79
2023/05/04 04:45:52;;;;;;;33.50;20.50;;;;;;;9.90;74.67;99900.78;104629;1262;108690;-79
2023/05/04 04:48:21;;;;;;;29.30;19.30;;;;;;;9.92;74.62;99901.21;104650;1271;96591;-79
2023/05/04 04:50:49;;;;;;;29.00;18.70;;;;;;;9.92;74.60;99900.45;104754;1264;97201;-79
2023/05/04 04:53:17;;;;;;;35.10;24.00;;;;;;;9.95;74.57;99896.75;104614;1263;108685;-80
2023/05/04 04:55:46;;;;;;;47.60;38.10;;;;;;;9.99;74.64;99894.63;104651;1262;96723;-79
2023/05/04 04:58:15;;;;;;;34.10;23.70;;;;;;;10.05;74.68;99897.46;104664;1270;107928;-79
2023/05/04 05:00:44;;;;;;;28.70;18.60;;;;;;;10.10;74.70;99893.94;104645;1266;96587;-79
2023/05/04 05:03:12;;;;;;;29.00;16.70;;;;;;;10.18;74.71;99897.27;104727;1264;96653;-79
2023/05/04 05:05:40;;;;;;;29.50;17.10;;;;;;;10.22;74.70;99898.09;104619;1271;111055;-79
2023/05/04 05:08:08;;;;;;;26.60;15.20;;;;;;;10.24;74.66;99898.11;104577;1262;96585;-79
2023/05/04 05:10:36;;;;;;;28.70;16.90;;;;;;;10.30;74.73;99902.77;104602;1262;108756;-79
2023/05/04 05:13:05;;;;;;;26.30;16.60;;;;;;;10.34;74.63;99908.38;104595;1271;96590;-79
2023/05/04 05:15:33;;;;;;;27.10;15.50;;;;;;;10.38;74.69;99909.21;104794;1266;96684;-79
2023/05/04 05:18:01;;;;;;;26.70;16.10;;;;;;;10.42;74.73;99909.02;104633;1262;110614;-79
2023/05/04 05:20:29;;;;;;;26.30;16.00;;;;;;;10.50;74.82;99910.33;104649;1264;97417;-79
2023/05/04 05:22:57;;;;;;;27.20;15.20;;;;;;;10.53;74.52;99910.67;104584;1273;107957;-79
2023/05/04 05:25:25;;;;;;;26.80;14.70;;;;;;;10.54;74.49;99910.98;104630;1262;97527;-79
2023/05/04 05:27:54;;;;;;;25.40;14.90;;;;;;;10.58;74.54;99917.64;104646;1271;97801;-79
2023/05/04 05:30:22;;;;;;;23.70;12.90;;;;;;;10.67;74.66;99919.09;104616;1271;110115;-79
2023/05/04 05:32:50;;;;;;;24.70;15.40;;;;;;;10.73;74.62;99916.08;104718;1263;96598;-79
2023/05/04 05:35:17;;;;;;;23.90;13.60;;;;;;;10.79;74.60;99919.64;104631;1262;108662;-79
2023/05/04 05:37:47;;;;;;;27.40;15.00;;;;;;;10.84;74.63;99922.16;104663;1264;96585;-79
2023/05/04 05:40:15;;;;;;;24.70;14.10;;;;;;;10.91;74.71;99922.27;104684;1259;97933;-79
2023/05/04 05:42:45;;;;;;;24.70;13.50;;;;;;;11.02;74.61;99918.96;104658;1260;110031;-79
2023/05/04 05:45:13;;;;;;;22.20;13.10;;;;;;;11.08;74.61;99919.60;104683;1266;97654;-79
2023/05/04 05:47:41;;;;;;;23.80;13.90;;;;;;;11.14;74.62;99917.83;104591;1262;107616;-79
2023/05/04 05:50:12;;;;;;;23.30;13.90;;;;;;;11.21;74.62;99917.95;104633;1264;96596;-79
2023/05/04 05:52:40;;;;;;;24.40;13.50;;;;;;;11.24;74.48;99921.84;104616;1263;96705;-79
2023/05/04 05:55:08;;;;;;;22.70;12.60;;;;;;;11.28;74.55;99920.73;104695;1265;109002;-80
2023/05/04 05:57:37;;;;;;;25.10;13.40;;;;;;;11.33;74.54;99921.83;104664;1263;96687;-79
2023/05/04 06:00:05;;;;;;;23.00;13.60;;;;;;;11.41;74.56;99924.71;104654;1270;107591;-79
2023/05/04 06:02:34;;;;;;;23.60;12.40;;;;;;;11.49;74.56;99926.36;104766;1262;97404;-79
2023/05/04 06:05:02;;;;;;;22.10;12.10;;;;;;;11.56;74.53;99923.45;104605;1271;96563;-79
2023/05/04 06:07:30;;;;;;;21.80;12.10;;;;;;;11.66;74.54;99926.92;104715;1269;109527;-79
2023/05/04 06:09:58;;;;;;;21.40;11.70;;;;;;;11.74;74.50;99926.39;104600;1266;96688;-79
2023/05/04 06:12:27;;;;;;;23.40;11.60;;;;;;;11.79;74.37;99926.27;104640;1264;108788;-80
2023/05/04 06:14:55;;;;;;;22.20;11.20;;;;;;;11.86;74.40;99928.63;104604;1273;96680;-79
2023/05/04 06:17:22;;;;;;;21.60;11.20;;;;;;;11.90;74.32;99928.91;104662;1262;97046;-79
2023/05/04 06:19:50;;;;;;;20.90;10.20;;;;;;;11.95;74.36;99928.44;104548;1266;110810;-79
2023/05/04 06:22:19;;;;;;;20.50;11.20;;;;;;;11.98;74.14;99929.48;104645;1262;96755;-79
2023/05/04 06:24:46;;;;;;;21.50;11.00;;;;;;;11.98;74.14;99928.61;104574;1271;107167;-79
2023/05/04 06:27:15;;;;;;;20.50;10.90;;;;;;;11.99;74.07;99931.73;104611;1271;97415;-79
2023/05/04 06:29:42;;;;;;;18.90;10.10;;;;;;;12.02;74.16;99930.67;104586;1264;96586;-79
2023/05/04 06:32:10;;;;;;;19.20;9.40;;;;;;;12.00;74.03;99928.33;104704;1262;110154;-79
2023/05/04 06:34:38;;;;;;;19.10;9.10;;;;;;;11.98;74.12;99927.34;104735;1260;97814;-79
2023/05/04 06:37:06;;;;;;;18.00;8.80;;;;;;;11.92;73.75;99927.91;104732;1270;106988;-79
2023/05/04 06:39:34;;;;;;;18.40;8.20;;;;;;;11.80;73.75;99927.62;104749;1272;96584;-79
2023/05/04 06:42:02;;;;;;;16.90;7.80;;;;;;;11.71;73.82;99923.88;104783;1257;96613;-78
2023/05/04 06:44:36;;;;;;;21.40;9.40;;;;;;;11.58;73.51;99924.55;104745;1262;109615;-79
2023/05/04 06:47:03;;;;;;;;;;;;;;;11.46;73.54;99920.14;104810;1260;97521;-79
2023/05/04 06:49:32;;;;;;;19.00;8.10;;;;;;;11.37;73.66;99923.22;104724;1260;107269;-79
2023/05/04 06:52:00;;;;;;;19.40;7.80;;;;;;;11.31;73.64;99921.28;104705;1260;96638;-80
2023/05/04 06:54:30;;;;;;;16.80;7.70;;;;;;;11.26;73.60;99925.48;104775;1261;96586;-79
2023/05/04 06:57:02;;;;;;;14.00;7.00;;;;;;;11.25;73.52;99922.14;104788;1261;110240;-79
2023/05/04 06:59:30;;;;;;;15.70;7.00;;;;;;;11.25;73.57;99921.61;104896;1259;96610;-79
2023/05/04 07:01:57;;;;;;;16.80;7.70;;;;;;;11.24;73.54;99918.83;104807;1260;108985;-80
2023/05/04 07:04:26;;;;;;;19.90;7.70;;;;;;;11.24;73.46;99918.16;104791;1270;96699;-80
2023/05/04 07:06:54;;;;;;;16.80;7.50;;;;;;;11.24;73.58;99916.67;104828;1269;96680;-80
2023/05/04 07:09:22;;;;;;;13.90;6.80;;;;;;;11.23;73.36;99917.48;104780;1270;108792;-79
2023/05/04 07:11:49;;;;;;;15.00;6.60;;;;;;;11.19;73.28;99915.95;104803;1262;97560;-80
2023/05/04 07:14:17;;;;;;;15.40;7.20;;;;;;;11.16;73.15;99918.65;104777;1261;107692;-79
2023/05/04 07:16:45;;;;;;;14.80;6.50;;;;;;;11.12;73.21;99920.14;104753;1255;97525;-80
2023/05/04 07:19:13;;;;;;;13.80;6.40;;;;;;;11.11;73.11;99918.02;104785;1267;96722;-80
2023/05/04 07:21:42;;;;;;;15.70;6.40;;;;;;;11.16;73.18;99916.16;104779;1264;109061;-79
2023/05/04 07:24:09;;;;;;;13.20;5.50;;;;;;;11.24;73.38;99917.61;104737;1263;96588;-80
2023/05/04 07:26:37;;;;;;;12.50;5.40;;;;;;;11.27;73.26;99917.39;104750;1270;107662;-80
2023/05/04 07:29:05;;;;;;;12.00;4.70;;;;;;;11.30;73.14;99918.98;104653;1260;174581;-80
2023/05/04 07:31:34;;;;;;;10.30;5.00;;;;;;;11.35;72.79;99918.88;104801;1260;96591;-81
2023/05/04 07:34:01;;;;;;;12.80;5.10;;;;;;;11.41;72.69;99917.78;104719;1259;111051;-80
2023/05/04 07:36:30;;;;;;;13.50;4.50;;;;;;;11.51;72.86;99916.64;104814;1261;97526;-80
2023/05/04 07:38:58;;;;;;;10.10;4.10;;;;;;;11.61;72.94;99910.49;104747;1262;107071;-80
2023/05/04 07:41:25;;;;;;;8.60;3.50;;;;;;;11.74;72.70;99912.22;104841;1267;96683;-80
2023/05/04 07:43:54;;;;;;;13.70;3.60;;;;;;;11.86;72.78;99913.39;104706;1269;96674;-80
2023/05/04 07:46:22;;;;;;;7.50;3.70;;;;;;;11.95;72.53;99914.95;105095;1263;109630;-79
2023/05/04 07:48:49;;;;;;;5.90;3.30;;;;;;;12.10;72.12;99917.56;104738;1260;96531;-80
2023/05/04 07:51:18;;;;;;;8.50;3.50;;;;;;;12.29;72.21;99919.85;104762;1271;107620;-80
2023/05/04 07:53:46;;;;;;;7.80;3.60;;;;;;;12.54;71.93;99920.92;104990;1267;97500;-80
2023/05/04 07:56:14;;;;;;;5.80;3.30;;;;;;;12.72;71.69;99918.09;104758;1260;96548;-79
2023/05/04 07:58:42;;;;;;;8.20;3.70;;;;;;;12.87;71.95;99917.08;104788;1268;111087;-82
2023/05/04 08:01:10;;;;;;;6.70;3.30;;;;;;;12.95;71.10;99914.35;104999;1269;97560;-81
2023/05/04 08:03:39;;;;;;;7.60;3.80;;;;;;;13.02;71.15;99918.67;104874;1261;106745;-81
2023/05/04 08:06:07;;;;;;;12.30;4.60;;;;;;;13.10;71.52;99912.27;104956;1260;96560;-79
2023/05/04 08:08:35;;;;;;;10.40;4.20;;;;;;;13.10;71.22;99912.10;104790;1264;96565;-80
2023/05/04 08:11:02;;;;;;;7.70;3.60;;;;;;;13.05;71.06;99920.11;104812;1269;109065;-79
2023/05/04 08:13:48;;;;;;;7.50;3.60;;;;;;;12.95;70.51;99916.88;104788;1267;97521;-79
2023/05/04 08:16:16;;;;;;;8.40;3.80;;;;;;;12.90;70.80;99919.54;104740;1265;108064;-78
2023/05/04 08:18:44;;;;;;;9.60;3.80;;;;;;;12.81;70.44;99917.12;104729;1271;96616;-78
2023/05/04 08:21:12;;;;;;;8.80;3.60;;;;;;;12.74;70.30;99918.50;104763;1257;96690;-78
2023/05/04 08:23:39;;;;;;;9.10;3.70;;;;;;;12.68;69.59;99919.60;104804;1258;109949;-78
2023/05/04 08:26:07;;;;;;;7.90;3.70;;;;;;;12.63;69.82;99914.03;104737;1261;97928;-78
2023/05/04 08:28:38;;;;;;;9.60;3.90;;;;;;;12.64;69.56;99911.67;104747;1260;107697;-78
2023/05/04 08:31:08;;;;;;;5.50;3.30;;;;;;;12.63;69.21;99913.48;104770;1268;97100;-79
2023/05/04 08:33:36;;;;;;;5.80;3.30;;;;;;;12.61;68.91;99920.41;104786;1257;96597;-79
2023/05/04 08:36:06;;;;;;;9.00;4.10;;;;;;;12.60;67.79;99922.48;105023;1260;110129;-78
2023/05/04 08:38:35;;;;;;;11.10;4.10;;;;;;;12.61;68.70;99918.98;104955;1258;96594;-79
2023/05/04 08:41:06;;;;;;;9.60;3.90;;;;;;;12.59;68.58;99917.21;105021;1260;106497;-78
2023/05/04 08:43:35;;;;;;;6.40;3.50;;;;;;;12.59;67.97;99915.61;105703;1260;97922;-78
2023/05/04 08:46:04;;;;;;;8.00;3.60;;;;;;;12.63;68.30;99920.44;104931;1257;96604;-78
2023/05/04 08:48:36;;;;;;;6.90;3.80;;;;;;;12.65;68.36;99919.76;104828;1265;108805;-78
2023/05/04 08:51:05;;;;;;;7.20;3.40;;;;;;;12.70;68.29;99916.30;106360;1256;96651;-78
2023/05/04 08:53:36;;;;;;;7.50;3.60;;;;;;;12.75;68.05;99916.44;105963;1257;106287;-79
2023/05/04 08:56:08;;;;;;;9.80;3.90;;;;;;;12.81;67.82;99916.39;105378;1257;98078;-78
2023/05/04 08:58:42;;;;;;;6.80;3.50;;;;;;;12.86;67.95;99915.91;104985;1258;96727;-79
2023/05/04 09:01:11;;;;;;;7.20;3.40;;;;;;;12.95;67.75;99915.77;105091;1255;111105;-78
2023/05/04 09:03:40;;;;;;;10.90;4.00;;;;;;;13.01;67.40;99922.67;105272;1257;96772;-79
2023/05/04 09:06:08;;;;;;;8.00;3.60;;;;;;;13.05;67.19;99918.35;105079;1260;107940;-79
2023/05/04 09:08:36;;;;;;;8.20;3.30;;;;;;;13.09;67.47;99918.41;105119;1262;97528;-78
2023/05/04 09:11:09;;;;;;;8.80;4.20;;;;;;;13.15;67.40;99919.46;105044;1267;97934;-78
2023/05/04 09:14:04;;;;;;;8.60;4.10;;;;;;;13.17;66.83;99921.41;105304;1257;109756;-78
2023/05/04 09:17:12;;;;;;;10.10;3.80;;;;;;;13.22;67.04;99917.91;105273;1260;97113;-79
2023/05/04 09:19:42;;;;;;;8.90;3.90;;;;;;;13.22;66.34;99914.66;104841;1267;108907;-78
2023/05/04 09:22:19;;;;;;;7.70;3.60;;;;;;;13.17;65.18;99920.89;105922;1261;97474;-78
2023/05/04 09:24:56;;;;;;;10.30;3.70;;;;;;;13.09;65.50;99913.08;107199;1257;96584;-79
2023/05/04 09:28:10;;;;;;;5.70;3.10;;;;;;;13.01;65.63;99912.71;104948;1258;109902;-79
2023/05/04 09:31:05;;;;;;;5.70;3.10;;;;;;;13.00;65.55;99915.49;104660;1261;96605;-79
2023/05/04 09:33:33;;;;;;;12.70;3.70;;;;;;;12.97;65.28;99906.75;104890;1266;108816;-79
2023/05/04 09:36:19;;;;;;;7.60;3.80;;;;;;;12.92;65.21;99905.84;104772;1261;97507;-79
2023/05/04 09:38:48;;;;;;;9.40;3.50;;;;;;;12.89;64.97;99903.05;104857;1271;96591;-79
2023/05/04 09:41:16;;;;;;;10.10;3.90;;;;;;;12.87;64.87;99899.59;104785;1259;110136;-79
2023/05/04 09:43:43;;;;;;;7.50;3.10;;;;;;;12.87;64.42;99893.02;104760;1269;96680;-79
2023/05/04 09:46:18;;;;;;;7.90;3.20;;;;;;;12.86;64.31;99895.42;104719;1257;107755;-79
2023/05/04 09:48:56;;;;;;;8.70;3.20;;;;;;;12.87;64.59;99892.13;104789;1260;97925;-79
2023/05/04 09:51:29;;;;;;;5.70;3.00;;;;;;;12.92;64.22;99895.55;104812;1257;96649;-79
2023/05/04 09:54:02;;;;;;;6.80;3.20;;;;;;;13.00;63.85;99895.77;104810;1264;109858;-79
2023/05/04 09:56:37;;;;;;;8.40;3.40;;;;;;;13.08;64.13;99896.70;104884;1260;96594;-79
2023/05/04 09:59:05;;;;;;;5.90;2.80;;;;;;;13.18;64.43;99896.41;104797;1260;108639;-80
2023/05/04 10:01:33;;;;;;;6.60;3.10;;;;;;;13.23;63.90;99892.83;104847;1259;96553;-78
2023/05/04 10:04:03;;;;;;;6.80;3.00;;;;;;;13.28;63.74;99901.96;104918;1261;97198;-78
2023/05/04 10:06:31;;;;;;;11.50;3.20;;;;;;;13.26;63.52;99895.29;104762;1257;109522;-78
2023/05/04 10:09:00;;;;;;;7.20;3.10;;;;;;;13.26;63.18;99890.52;104880;1261;97541;-78
2023/05/04 10:11:29;;;;;;;6.10;3.00;;;;;;;13.27;63.45;99885.98;104784;1260;108687;-78
2023/05/04 10:13:57;;;;;;;6.50;3.00;;;;;;;13.33;63.18;99886.81;104902;1267;97493;-78
2023/05/04 10:16:49;;;;;;;7.60;3.40;;;;;;;13.35;62.87;99882.41;104862;1262;96533;-79
2023/05/04 10:19:26;;;;;;;5.10;3.10;;;;;;;13.36;62.53;99872.02;104833;1264;109311;-78
2023/05/04 10:22:22;;;;;;;6.70;3.30;;;;;;;13.35;62.08;99864.38;104810;1261;96681;-78
2023/05/04 10:25:18;;;;;;;7.10;3.00;;;;;;;13.36;62.47;99860.43;104709;1258;107483;-78
2023/05/04 10:28:06;;;;;;;6.20;3.10;;;;;;;13.43;62.67;99861.53;104834;1260;97890;-79
2023/05/04 10:30:35;;;;;;;10.70;3.30;;;;;;;13.52;61.72;99864.83;104881;1260;97922;-78
2023/05/04 10:33:03;;;;;;;8.50;2.70;;;;;;;13.55;62.32;99857.31;104984;1257;108934;-78
2023/05/04 10:35:31;;;;;;;5.20;2.50;;;;;;;13.59;62.14;99848.52;104822;1260;97515;-79
2023/05/04 10:37:59;;;;;;;7.10;3.40;;;;;;;13.62;62.04;99849.34;104932;1260;108800;-78
2023/05/04 10:40:38;;;;;;;6.30;2.80;;;;;;;13.61;61.94;99845.88;104824;1267;96598;-79
2023/05/04 10:43:07;;;;;;;7.90;3.10;;;;;;;13.57;62.00;99847.35;104919;1261;97558;-79
2023/05/04 10:45:42;;;;;;;6.50;3.50;;;;;;;13.56;62.12;99845.83;104805;1272;110281;-79
2023/05/04 10:48:11;;;;;;;3.70;2.50;;;;;;;13.60;61.78;99846.10;104918;1261;96596;-79
2023/05/04 10:50:43;;;;;;;8.30;3.20;;;;;;;13.63;61.23;99847.11;104793;1260;107793;-79
2023/05/04 10:53:12;;;;;;;6.40;2.80;;;;;;;13.64;61.52;99836.70;104863;1261;97922;-79
2023/05/04 10:55:45;;;;;;;7.20;2.90;;;;;;;13.67;61.60;99831.45;104825;1264;96533;-79
2023/05/04 10:58:20;;;;;;;4.80;2.80;;;;;;;13.77;61.70;99831.85;104881;1257;111276;-79
2023/05/04 11:00:50;;;;;;;5.40;2.60;;;;;;;13.88;61.50;99832.27;104890;1261;96623;-79
2023/05/04 11:03:20;;;;;;;5.80;2.70;;;;;;;14.01;61.59;99825.42;104876;1256;107904;-79
2023/05/04 11:05:51;;;;;;;5.10;2.80;;;;;;;14.12;61.04;99827.48;104829;1259;97896;-80
2023/05/04 11:08:24;;;;;;;5.90;2.90;;;;;;;14.19;61.20;99823.59;104876;1261;96571;-78
2023/05/04 11:11:01;;;;;;;6.00;3.10;;;;;;;14.18;60.94;99821.30;104990;1257;110804;-79
2023/05/04 11:13:30;;;;;;;3.80;2.70;;;;;;;14.14;61.12;99820.00;104860;1264;97795;-78
2023/05/04 11:15:59;;;;;;;4.70;2.60;;;;;;;14.05;59.96;99818.14;104683;1260;107896;-78
2023/05/04 11:18:33;;;;;;;7.70;2.90;;;;;;;13.91;60.30;99815.44;104885;1261;96705;-78
2023/05/04 11:21:02;;;;;;;6.20;2.90;;;;;;;13.84;60.29;99808.66;104997;1257;96687;-78
2023/05/04 11:23:30;;;;;;;6.80;2.70;;;;;;;13.84;60.17;99803.16;104876;1263;109942;-78
2023/05/04 11:26:05;;;;;;;5.30;2.90;;;;;;;13.84;60.19;99800.09;104981;1270;97846;-78